sensor_id;sensor_type;location;lat;lon;timestamp;P1;durP1;ratioP1;P2;durP2;ratioP2
38611;SDS011;24368;52.156;20.788;2023-03-17T00:03:23;41.80;;;26.90;;
38611;SDS011;24368;52.156;20.788;2023-03-17T00:08:28;42.70;;;27.90;;
38611;SDS011;24368;52.156;20.788;2023-03-17T00:13:34;43.90;;;29.70;;
38611;SDS011;24368;52.156;20.788;2023-03-17T00:18:36;47.20;;;31.50;;
38611;SDS011;24368;52.156;20.788;2023-03-17T00:23:38;36.70;;;24.40;;
38611;SDS011;24368;52.156;20.788;2023-03-17T00:28:40;33.10;;;21.20;;
38611;SDS011;24368;52.156;20.788;2023-03-17T00:33:43;34.60;;;20.90;;
38611;SDS011;24368;52.156;20.788;2023-03-17T00:38:46;39.40;;;24.30;;
38611;SDS011;24368;52.156;20.788;2023-03-17T00:43:49;40.40;;;26.30;;
38611;SDS011;24368;52.156;20.788;2023-03-17T00:48:51;33.70;;;23.30;;
38611;SDS011;24368;52.156;20.788;2023-03-17T00:53:54;36.10;;;23.60;;
38611;SDS011;24368;52.156;20.788;2023-03-17T00:58:57;30.60;;;20.70;;
38611;SDS011;24368;52.156;20.788;2023-03-17T01:03:59;36.50;;;23.00;;
38611;SDS011;24368;52.156;20.788;2023-03-17T01:09:00;27.00;;;18.30;;
38611;SDS011;24368;52.156;20.788;2023-03-17T01:14:04;30.50;;;19.20;;
38611;SDS011;24368;52.156;20.788;2023-03-17T01:19:06;24.80;;;17.20;;
38611;SDS011;24368;52.156;20.788;2023-03-17T01:24:09;23.40;;;17.90;;
38611;SDS011;24368;52.156;20.788;2023-03-17T01:29:11;23.20;;;16.50;;
38611;SDS011;24368;52.156;20.788;2023-03-17T01:34:14;28.30;;;17.20;;
38611;SDS011;24368;52.156;20.788;2023-03-17T01:39:16;27.30;;;18.50;;
38611;SDS011;24368;52.156;20.788;2023-03-17T01:44:18;30.70;;;19.40;;
38611;SDS011;24368;52.156;20.788;2023-03-17T01:49:40;30.00;;;20.70;;
38611;SDS011;24368;52.156;20.788;2023-03-17T01:54:44;28.20;;;19.90;;
38611;SDS011;24368;52.156;20.788;2023-03-17T01:59:52;31.70;;;20.60;;
38611;SDS011;24368;52.156;20.788;2023-03-17T02:05:17;28.20;;;19.20;;
38611;SDS011;24368;52.156;20.788;2023-03-17T02:10:22;26.10;;;18.60;;
38611;SDS011;24368;52.156;20.788;2023-03-17T02:15:37;31.00;;;19.80;;
38611;SDS011;24368;52.156;20.788;2023-03-17T02:25:48;26.90;;;18.80;;
38611;SDS011;24368;52.156;20.788;2023-03-17T02:30:52;29.90;;;19.90;;
38611;SDS011;24368;52.156;20.788;2023-03-17T02:35:53;33.00;;;23.00;;
38611;SDS011;24368;52.156;20.788;2023-03-17T02:40:56;33.80;;;21.00;;
38611;SDS011;24368;52.156;20.788;2023-03-17T02:45:58;31.40;;;22.30;;
38611;SDS011;24368;52.156;20.788;2023-03-17T02:51:00;33.10;;;22.30;;
38611;SDS011;24368;52.156;20.788;2023-03-17T02:56:01;37.20;;;25.00;;
38611;SDS011;24368;52.156;20.788;2023-03-17T03:01:04;32.80;;;22.40;;
38611;SDS011;24368;52.156;20.788;2023-03-17T03:06:06;33.70;;;21.00;;
38611;SDS011;24368;52.156;20.788;2023-03-17T03:11:08;28.90;;;20.30;;
38611;SDS011;24368;52.156;20.788;2023-03-17T03:16:09;26.90;;;18.50;;
38611;SDS011;24368;52.156;20.788;2023-03-17T03:21:11;24.30;;;17.20;;
38611;SDS011;24368;52.156;20.788;2023-03-17T03:26:13;22.90;;;16.30;;
38611;SDS011;24368;52.156;20.788;2023-03-17T03:31:15;22.50;;;15.70;;
38611;SDS011;24368;52.156;20.788;2023-03-17T03:36:18;24.70;;;17.10;;
38611;SDS011;24368;52.156;20.788;2023-03-17T03:41:20;23.00;;;17.20;;
38611;SDS011;24368;52.156;20.788;2023-03-17T03:46:22;22.60;;;15.80;;
38611;SDS011;24368;52.156;20.788;2023-03-17T03:51:24;25.70;;;17.90;;
38611;SDS011;24368;52.156;20.788;2023-03-17T03:56:26;23.10;;;17.00;;
38611;SDS011;24368;52.156;20.788;2023-03-17T04:01:28;23.90;;;17.20;;
38611;SDS011;24368;52.156;20.788;2023-03-17T04:06:30;28.80;;;18.60;;
38611;SDS011;24368;52.156;20.788;2023-03-17T04:11:32;24.80;;;15.60;;
38611;SDS011;24368;52.156;20.788;2023-03-17T04:16:34;25.30;;;17.50;;
38611;SDS011;24368;52.156;20.788;2023-03-17T04:21:36;26.50;;;19.00;;
38611;SDS011;24368;52.156;20.788;2023-03-17T04:26:38;29.90;;;21.50;;
38611;SDS011;24368;52.156;20.788;2023-03-17T04:31:40;38.20;;;24.60;;
38611;SDS011;24368;52.156;20.788;2023-03-17T04:36:43;35.00;;;23.60;;
38611;SDS011;24368;52.156;20.788;2023-03-17T04:41:46;31.10;;;23.30;;
38611;SDS011;24368;52.156;20.788;2023-03-17T04:46:48;34.50;;;24.00;;
38611;SDS011;24368;52.156;20.788;2023-03-17T04:51:50;36.50;;;25.00;;
38611;SDS011;24368;52.156;20.788;2023-03-17T04:56:52;35.90;;;23.80;;
38611;SDS011;24368;52.156;20.788;2023-03-17T05:01:54;33.40;;;23.80;;
38611;SDS011;24368;52.156;20.788;2023-03-17T05:06:56;33.00;;;23.90;;
38611;SDS011;24368;52.156;20.788;2023-03-17T05:11:58;29.40;;;21.50;;
38611;SDS011;24368;52.156;20.788;2023-03-17T05:17:00;29.50;;;21.50;;
38611;SDS011;24368;52.156;20.788;2023-03-17T05:22:02;35.10;;;23.30;;
38611;SDS011;24368;52.156;20.788;2023-03-17T05:27:04;31.50;;;21.50;;
38611;SDS011;24368;52.156;20.788;2023-03-17T05:32:05;32.50;;;22.90;;
38611;SDS011;24368;52.156;20.788;2023-03-17T05:37:07;29.50;;;22.30;;
38611;SDS011;24368;52.156;20.788;2023-03-17T05:42:11;33.90;;;23.50;;
38611;SDS011;24368;52.156;20.788;2023-03-17T05:52:55;30.50;;;22.00;;
38611;SDS011;24368;52.156;20.788;2023-03-17T05:57:57;39.80;;;26.90;;
38611;SDS011;24368;52.156;20.788;2023-03-17T06:03:09;33.50;;;23.60;;
38611;SDS011;24368;52.156;20.788;2023-03-17T06:08:11;33.70;;;22.80;;
38611;SDS011;24368;52.156;20.788;2023-03-17T06:13:14;28.90;;;21.50;;
38611;SDS011;24368;52.156;20.788;2023-03-17T06:18:16;29.60;;;21.70;;
38611;SDS011;24368;52.156;20.788;2023-03-17T06:23:20;30.70;;;20.20;;
38611;SDS011;24368;52.156;20.788;2023-03-17T06:28:23;34.20;;;22.50;;
38611;SDS011;24368;52.156;20.788;2023-03-17T06:33:26;27.10;;;19.20;;
38611;SDS011;24368;52.156;20.788;2023-03-17T06:38:28;26.10;;;17.70;;
38611;SDS011;24368;52.156;20.788;2023-03-17T06:43:30;23.90;;;16.80;;
38611;SDS011;24368;52.156;20.788;2023-03-17T06:48:33;23.80;;;17.10;;
38611;SDS011;24368;52.156;20.788;2023-03-17T06:53:35;25.60;;;19.10;;
38611;SDS011;24368;52.156;20.788;2023-03-17T06:58:37;27.30;;;18.10;;
38611;SDS011;24368;52.156;20.788;2023-03-17T07:03:40;25.80;;;17.40;;
38611;SDS011;24368;52.156;20.788;2023-03-17T07:08:42;18.80;;;14.70;;
38611;SDS011;24368;52.156;20.788;2023-03-17T07:13:44;21.10;;;16.20;;
38611;SDS011;24368;52.156;20.788;2023-03-17T07:18:46;22.00;;;15.00;;
38611;SDS011;24368;52.156;20.788;2023-03-17T07:23:49;20.70;;;12.90;;
38611;SDS011;24368;52.156;20.788;2023-03-17T07:28:50;15.10;;;11.30;;
38611;SDS011;24368;52.156;20.788;2023-03-17T07:33:52;19.60;;;12.80;;
38611;SDS011;24368;52.156;20.788;2023-03-17T07:38:54;16.70;;;12.80;;
38611;SDS011;24368;52.156;20.788;2023-03-17T07:43:56;20.20;;;12.00;;
38611;SDS011;24368;52.156;20.788;2023-03-17T07:48:58;14.10;;;11.10;;
38611;SDS011;24368;52.156;20.788;2023-03-17T07:54:00;17.70;;;10.40;;
38611;SDS011;24368;52.156;20.788;2023-03-17T07:59:06;15.10;;;10.40;;
38611;SDS011;24368;52.156;20.788;2023-03-17T08:04:11;12.20;;;10.10;;
38611;SDS011;24368;52.156;20.788;2023-03-17T08:09:13;8.80;;;7.70;;
38611;SDS011;24368;52.156;20.788;2023-03-17T08:14:15;10.80;;;7.80;;
38611;SDS011;24368;52.156;20.788;2023-03-17T08:19:17;9.60;;;7.60;;
38611;SDS011;24368;52.156;20.788;2023-03-17T08:24:19;9.80;;;6.20;;
38611;SDS011;24368;52.156;20.788;2023-03-17T08:29:21;7.00;;;5.20;;
38611;SDS011;24368;52.156;20.788;2023-03-17T08:34:24;8.50;;;5.80;;
38611;SDS011;24368;52.156;20.788;2023-03-17T08:39:26;7.90;;;5.70;;
38611;SDS011;24368;52.156;20.788;2023-03-17T08:44:31;8.30;;;5.70;;
38611;SDS011;24368;52.156;20.788;2023-03-17T08:49:33;6.50;;;4.70;;
38611;SDS011;24368;52.156;20.788;2023-03-17T08:54:36;6.30;;;4.20;;
38611;SDS011;24368;52.156;20.788;2023-03-17T08:59:38;6.20;;;4.70;;
38611;SDS011;24368;52.156;20.788;2023-03-17T09:04:40;8.60;;;5.90;;
38611;SDS011;24368;52.156;20.788;2023-03-17T09:09:43;6.80;;;5.70;;
38611;SDS011;24368;52.156;20.788;2023-03-17T09:14:45;9.70;;;5.80;;
38611;SDS011;24368;52.156;20.788;2023-03-17T09:19:47;7.50;;;5.20;;
38611;SDS011;24368;52.156;20.788;2023-03-17T09:24:48;5.20;;;4.50;;
38611;SDS011;24368;52.156;20.788;2023-03-17T09:29:51;8.80;;;5.10;;
38611;SDS011;24368;52.156;20.788;2023-03-17T09:34:52;4.80;;;4.30;;
38611;SDS011;24368;52.156;20.788;2023-03-17T09:39:54;8.30;;;5.50;;
38611;SDS011;24368;52.156;20.788;2023-03-17T09:50:24;7.20;;;4.80;;
38611;SDS011;24368;52.156;20.788;2023-03-17T09:55:30;10.00;;;6.20;;
38611;SDS011;24368;52.156;20.788;2023-03-17T10:00:32;6.90;;;5.00;;
38611;SDS011;24368;52.156;20.788;2023-03-17T10:05:35;7.10;;;4.80;;
38611;SDS011;24368;52.156;20.788;2023-03-17T10:15:59;6.50;;;4.80;;
38611;SDS011;24368;52.156;20.788;2023-03-17T10:21:06;7.00;;;4.60;;
38611;SDS011;24368;52.156;20.788;2023-03-17T10:26:21;6.70;;;4.70;;
38611;SDS011;24368;52.156;20.788;2023-03-17T10:31:40;6.60;;;4.40;;
38611;SDS011;24368;52.156;20.788;2023-03-17T10:37:03;7.50;;;4.50;;
38611;SDS011;24368;52.156;20.788;2023-03-17T10:42:08;4.40;;;3.90;;
38611;SDS011;24368;52.156;20.788;2023-03-17T10:52:26;7.20;;;4.30;;
38611;SDS011;24368;52.156;20.788;2023-03-17T10:57:30;5.70;;;3.80;;
38611;SDS011;24368;52.156;20.788;2023-03-17T11:02:35;7.20;;;3.60;;
38611;SDS011;24368;52.156;20.788;2023-03-17T11:07:43;6.10;;;4.20;;
38611;SDS011;24368;52.156;20.788;2023-03-17T11:12:46;8.50;;;4.70;;
38611;SDS011;24368;52.156;20.788;2023-03-17T11:17:57;6.00;;;4.20;;
38611;SDS011;24368;52.156;20.788;2023-03-17T11:28:37;8.70;;;4.60;;
38611;SDS011;24368;52.156;20.788;2023-03-17T11:33:44;5.60;;;4.20;;
38611;SDS011;24368;52.156;20.788;2023-03-17T11:44:30;7.20;;;4.50;;
38611;SDS011;24368;52.156;20.788;2023-03-17T11:49:36;9.20;;;3.80;;
38611;SDS011;24368;52.156;20.788;2023-03-17T12:00:03;5.50;;;3.80;;
38611;SDS011;24368;52.156;20.788;2023-03-17T12:05:21;5.60;;;3.90;;
38611;SDS011;24368;52.156;20.788;2023-03-17T12:10:34;6.40;;;3.70;;
38611;SDS011;24368;52.156;20.788;2023-03-17T12:20:49;6.70;;;4.00;;
38611;SDS011;24368;52.156;20.788;2023-03-17T12:26:11;5.80;;;3.90;;
38611;SDS011;24368;52.156;20.788;2023-03-17T12:31:38;6.10;;;4.00;;
38611;SDS011;24368;52.156;20.788;2023-03-17T12:36:43;5.00;;;3.50;;
38611;SDS011;24368;52.156;20.788;2023-03-17T12:41:57;5.10;;;3.00;;
38611;SDS011;24368;52.156;20.788;2023-03-17T13:03:33;6.30;;;3.50;;
38611;SDS011;24368;52.156;20.788;2023-03-17T13:08:39;5.20;;;3.60;;
38611;SDS011;24368;52.156;20.788;2023-03-17T13:18:46;7.70;;;4.50;;
38611;SDS011;24368;52.156;20.788;2023-03-17T13:34:43;5.10;;;3.80;;
38611;SDS011;24368;52.156;20.788;2023-03-17T13:50:39;6.90;;;4.60;;
38611;SDS011;24368;52.156;20.788;2023-03-17T13:56:02;5.60;;;5.00;;
38611;SDS011;24368;52.156;20.788;2023-03-17T14:01:09;8.20;;;4.80;;
38611;SDS011;24368;52.156;20.788;2023-03-17T14:06:14;7.10;;;4.60;;
38611;SDS011;24368;52.156;20.788;2023-03-17T14:16:25;7.40;;;5.70;;
38611;SDS011;24368;52.156;20.788;2023-03-17T14:21:30;8.00;;;5.10;;
38611;SDS011;24368;52.156;20.788;2023-03-17T14:26:33;8.20;;;5.90;;
38611;SDS011;24368;52.156;20.788;2023-03-17T14:31:35;7.50;;;5.50;;
38611;SDS011;24368;52.156;20.788;2023-03-17T14:36:37;7.20;;;6.00;;
38611;SDS011;24368;52.156;20.788;2023-03-17T14:41:39;9.90;;;6.90;;
38611;SDS011;24368;52.156;20.788;2023-03-17T14:46:41;8.40;;;6.30;;
38611;SDS011;24368;52.156;20.788;2023-03-17T14:51:47;7.00;;;5.60;;
38611;SDS011;24368;52.156;20.788;2023-03-17T14:56:52;7.60;;;6.30;;
38611;SDS011;24368;52.156;20.788;2023-03-17T15:02:14;8.30;;;6.70;;
38611;SDS011;24368;52.156;20.788;2023-03-17T15:07:30;7.60;;;5.40;;
38611;SDS011;24368;52.156;20.788;2023-03-17T15:12:35;7.70;;;5.90;;
38611;SDS011;24368;52.156;20.788;2023-03-17T15:17:36;8.20;;;5.80;;
38611;SDS011;24368;52.156;20.788;2023-03-17T15:22:40;9.00;;;5.70;;
38611;SDS011;24368;52.156;20.788;2023-03-17T15:27:44;6.80;;;4.90;;
38611;SDS011;24368;52.156;20.788;2023-03-17T15:33:01;7.30;;;5.90;;
38611;SDS011;24368;52.156;20.788;2023-03-17T15:38:04;7.30;;;6.40;;
38611;SDS011;24368;52.156;20.788;2023-03-17T15:43:07;7.60;;;5.70;;
38611;SDS011;24368;52.156;20.788;2023-03-17T15:48:15;7.60;;;6.50;;
38611;SDS011;24368;52.156;20.788;2023-03-17T15:53:21;8.20;;;5.80;;
38611;SDS011;24368;52.156;20.788;2023-03-17T15:58:23;7.70;;;5.90;;
38611;SDS011;24368;52.156;20.788;2023-03-17T16:03:27;6.30;;;5.20;;
38611;SDS011;24368;52.156;20.788;2023-03-17T16:08:31;9.10;;;5.80;;
38611;SDS011;24368;52.156;20.788;2023-03-17T16:13:34;8.30;;;5.70;;
38611;SDS011;24368;52.156;20.788;2023-03-17T16:18:36;7.20;;;5.20;;
38611;SDS011;24368;52.156;20.788;2023-03-17T16:23:38;5.70;;;4.30;;
38611;SDS011;24368;52.156;20.788;2023-03-17T16:28:41;7.10;;;4.70;;
38611;SDS011;24368;52.156;20.788;2023-03-17T16:33:45;5.60;;;4.20;;
38611;SDS011;24368;52.156;20.788;2023-03-17T16:39:02;8.30;;;5.00;;
38611;SDS011;24368;52.156;20.788;2023-03-17T16:44:08;6.90;;;5.30;;
38611;SDS011;24368;52.156;20.788;2023-03-17T16:49:17;6.20;;;4.90;;
38611;SDS011;24368;52.156;20.788;2023-03-17T16:54:25;6.40;;;5.40;;
38611;SDS011;24368;52.156;20.788;2023-03-17T16:59:58;6.30;;;5.70;;
38611;SDS011;24368;52.156;20.788;2023-03-17T17:05:00;8.10;;;5.60;;
38611;SDS011;24368;52.156;20.788;2023-03-17T17:10:05;8.40;;;5.10;;
38611;SDS011;24368;52.156;20.788;2023-03-17T17:15:08;7.70;;;5.00;;
38611;SDS011;24368;52.156;20.788;2023-03-17T17:20:13;7.50;;;5.30;;
38611;SDS011;24368;52.156;20.788;2023-03-17T17:25:16;9.40;;;6.50;;
38611;SDS011;24368;52.156;20.788;2023-03-17T17:30:19;12.50;;;7.40;;
38611;SDS011;24368;52.156;20.788;2023-03-17T17:35:25;11.60;;;7.40;;
38611;SDS011;24368;52.156;20.788;2023-03-17T17:40:29;10.30;;;7.10;;
38611;SDS011;24368;52.156;20.788;2023-03-17T17:45:31;11.50;;;8.10;;
38611;SDS011;24368;52.156;20.788;2023-03-17T17:50:34;12.30;;;8.30;;
38611;SDS011;24368;52.156;20.788;2023-03-17T17:55:39;9.70;;;7.50;;
38611;SDS011;24368;52.156;20.788;2023-03-17T18:00:43;9.90;;;7.70;;
38611;SDS011;24368;52.156;20.788;2023-03-17T18:05:45;14.40;;;8.90;;
38611;SDS011;24368;52.156;20.788;2023-03-17T18:10:48;10.70;;;7.60;;
38611;SDS011;24368;52.156;20.788;2023-03-17T18:15:50;10.60;;;7.60;;
38611;SDS011;24368;52.156;20.788;2023-03-17T18:20:53;9.80;;;7.10;;
38611;SDS011;24368;52.156;20.788;2023-03-17T18:25:59;8.50;;;6.60;;
38611;SDS011;24368;52.156;20.788;2023-03-17T18:31:07;8.10;;;6.60;;
38611;SDS011;24368;52.156;20.788;2023-03-17T18:36:19;10.00;;;7.40;;
38611;SDS011;24368;52.156;20.788;2023-03-17T18:41:21;11.80;;;7.70;;
38611;SDS011;24368;52.156;20.788;2023-03-17T18:46:24;9.50;;;7.20;;
38611;SDS011;24368;52.156;20.788;2023-03-17T18:51:27;11.30;;;6.80;;
38611;SDS011;24368;52.156;20.788;2023-03-17T18:56:28;8.90;;;7.10;;
38611;SDS011;24368;52.156;20.788;2023-03-17T19:01:31;11.10;;;7.00;;
38611;SDS011;24368;52.156;20.788;2023-03-17T19:06:33;11.90;;;7.20;;
38611;SDS011;24368;52.156;20.788;2023-03-17T19:11:39;9.00;;;7.20;;
38611;SDS011;24368;52.156;20.788;2023-03-17T19:16:41;8.40;;;5.40;;
38611;SDS011;24368;52.156;20.788;2023-03-17T19:21:43;11.20;;;7.60;;
38611;SDS011;24368;52.156;20.788;2023-03-17T19:26:45;11.50;;;7.80;;
38611;SDS011;24368;52.156;20.788;2023-03-17T19:31:47;10.70;;;7.80;;
38611;SDS011;24368;52.156;20.788;2023-03-17T19:36:49;13.30;;;8.70;;
38611;SDS011;24368;52.156;20.788;2023-03-17T19:41:51;11.70;;;8.50;;
38611;SDS011;24368;52.156;20.788;2023-03-17T19:46:55;12.00;;;8.30;;
38611;SDS011;24368;52.156;20.788;2023-03-17T19:51:57;13.30;;;8.10;;
38611;SDS011;24368;52.156;20.788;2023-03-17T19:57:03;14.70;;;8.80;;
38611;SDS011;24368;52.156;20.788;2023-03-17T20:02:05;11.50;;;8.70;;
38611;SDS011;24368;52.156;20.788;2023-03-17T20:07:08;10.30;;;8.60;;
38611;SDS011;24368;52.156;20.788;2023-03-17T20:12:11;11.20;;;8.80;;
38611;SDS011;24368;52.156;20.788;2023-03-17T20:17:13;13.60;;;8.90;;
38611;SDS011;24368;52.156;20.788;2023-03-17T20:22:15;12.30;;;8.50;;
38611;SDS011;24368;52.156;20.788;2023-03-17T20:27:18;10.60;;;8.50;;
38611;SDS011;24368;52.156;20.788;2023-03-17T20:32:20;15.10;;;9.40;;
38611;SDS011;24368;52.156;20.788;2023-03-17T20:37:22;15.10;;;9.70;;
38611;SDS011;24368;52.156;20.788;2023-03-17T20:42:25;12.50;;;9.30;;
38611;SDS011;24368;52.156;20.788;2023-03-17T20:47:27;12.80;;;10.00;;
38611;SDS011;24368;52.156;20.788;2023-03-17T20:52:29;15.60;;;10.50;;
38611;SDS011;24368;52.156;20.788;2023-03-17T20:57:33;14.10;;;10.70;;
38611;SDS011;24368;52.156;20.788;2023-03-17T21:02:36;12.60;;;8.70;;
38611;SDS011;24368;52.156;20.788;2023-03-17T21:07:38;13.60;;;10.30;;
38611;SDS011;24368;52.156;20.788;2023-03-17T21:12:40;11.80;;;9.70;;
38611;SDS011;24368;52.156;20.788;2023-03-17T21:17:42;14.70;;;11.20;;
38611;SDS011;24368;52.156;20.788;2023-03-17T21:22:44;15.90;;;11.40;;
38611;SDS011;24368;52.156;20.788;2023-03-17T21:27:46;15.40;;;11.00;;
38611;SDS011;24368;52.156;20.788;2023-03-17T21:32:49;15.40;;;10.40;;
38611;SDS011;24368;52.156;20.788;2023-03-17T21:37:51;11.20;;;9.20;;
38611;SDS011;24368;52.156;20.788;2023-03-17T21:42:53;12.80;;;9.70;;
38611;SDS011;24368;52.156;20.788;2023-03-17T21:47:56;12.60;;;9.40;;
38611;SDS011;24368;52.156;20.788;2023-03-17T21:52:57;13.10;;;10.30;;
38611;SDS011;24368;52.156;20.788;2023-03-17T21:57:59;13.20;;;9.70;;
38611;SDS011;24368;52.156;20.788;2023-03-17T22:03:02;12.20;;;9.30;;
38611;SDS011;24368;52.156;20.788;2023-03-17T22:08:05;11.90;;;9.00;;
38611;SDS011;24368;52.156;20.788;2023-03-17T22:13:06;13.40;;;8.30;;
38611;SDS011;24368;52.156;20.788;2023-03-17T22:18:08;17.20;;;9.40;;
38611;SDS011;24368;52.156;20.788;2023-03-17T22:23:11;13.90;;;9.50;;
38611;SDS011;24368;52.156;20.788;2023-03-17T22:28:14;11.60;;;8.40;;
38611;SDS011;24368;52.156;20.788;2023-03-17T22:33:16;14.30;;;8.50;;
38611;SDS011;24368;52.156;20.788;2023-03-17T22:38:18;9.20;;;6.90;;
38611;SDS011;24368;52.156;20.788;2023-03-17T22:43:20;10.80;;;7.10;;
38611;SDS011;24368;52.156;20.788;2023-03-17T22:48:22;10.60;;;7.30;;
38611;SDS011;24368;52.156;20.788;2023-03-17T22:53:24;12.00;;;7.40;;
38611;SDS011;24368;52.156;20.788;2023-03-17T22:58:26;10.10;;;6.60;;
38611;SDS011;24368;52.156;20.788;2023-03-17T23:03:28;9.00;;;6.40;;
38611;SDS011;24368;52.156;20.788;2023-03-17T23:08:31;10.00;;;7.10;;
38611;SDS011;24368;52.156;20.788;2023-03-17T23:13:36;9.60;;;6.30;;
38611;SDS011;24368;52.156;20.788;2023-03-17T23:18:40;10.40;;;6.40;;
38611;SDS011;24368;52.156;20.788;2023-03-17T23:23:43;8.00;;;5.40;;
38611;SDS011;24368;52.156;20.788;2023-03-17T23:28:45;9.00;;;6.70;;
38611;SDS011;24368;52.156;20.788;2023-03-17T23:33:48;10.30;;;5.60;;
38611;SDS011;24368;52.156;20.788;2023-03-17T23:38:50;8.40;;;6.40;;
38611;SDS011;24368;52.156;20.788;2023-03-17T23:43:53;9.40;;;6.40;;
38611;SDS011;24368;52.156;20.788;2023-03-17T23:48:54;10.00;;;5.80;;
38611;SDS011;24368;52.156;20.788;2023-03-17T23:53:56;6.40;;;5.00;;
38611;SDS011;24368;52.156;20.788;2023-03-17T23:58:59;6.80;;;5.00;;
